Time;durP1;ratioP1;P1;durP2;ratioP2;P2;SDS_P1;SDS_P2;PMS_P1;PMS_P2;Temp;Humidity;BMP_temperature;BMP_pressure;BME280_temperature;BME280_humidity;BME280_pressure;Samples;Min_cycle;Max_cycle;Signal;HPM_P1;HPM_P2
2022/05/02 00:01:28;;;;;;;10.88;7.22;;;;;;;;;;5072852;28;20114;-79
2022/05/02 00:03:54;;;;;;;12.60;8.23;;;;;;;;;;5066140;28;20044;-79
2022/05/02 00:06:20;;;;;;;11.77;8.25;;;;;;;;;;5058149;28;21048;-79
2022/05/02 00:08:46;;;;;;;12.48;7.93;;;;;;;;;;5053795;28;20044;-79
2022/05/02 00:11:13;;;;;;;13.65;8.82;;;;;;;;;;5074812;28;20048;-79
2022/05/02 00:13:39;;;;;;;15.45;8.30;;;;;;;;;;5080074;28;20051;-79
2022/05/02 00:16:08;;;;;;;15.73;8.48;;;;;;;;;;5078792;28;20072;-79
2022/05/02 00:18:35;;;;;;;13.88;7.60;;;;;;;;;;5079100;28;20086;-79
2022/05/02 00:21:01;;;;;;;11.95;8.07;;;;;;;;;;5082916;28;20052;-79
2022/05/02 00:23:28;;;;;;;13.18;8.55;;;;;;;;;;5052841;28;20033;-79
2022/05/02 00:25:54;;;;;;;13.05;8.50;;;;;;;;;;5082296;28;20523;-79
2022/05/02 00:28:20;;;;;;;11.80;7.72;;;;;;;;;;5072352;28;20048;-79
2022/05/02 00:30:46;;;;;;;11.63;7.07;;;;;;;;;;5055380;28;20032;-79
2022/05/02 00:33:13;;;;;;;12.02;7.55;;;;;;;;;;5054168;28;20045;-79
2022/05/02 00:35:39;;;;;;;10.50;7.50;;;;;;;;;;5073673;28;20085;-79
2022/05/02 00:38:05;;;;;;;9.82;6.55;;;;;;;;;;5072066;28;20405;-79
2022/05/02 00:40:32;;;;;;;15.80;8.40;;;;;;;;;;5075172;28;20053;-79
2022/05/02 00:42:58;;;;;;;12.55;8.60;;;;;;;;;;5053219;28;20074;-79
2022/05/02 00:45:24;;;;;;;11.68;7.78;;;;;;;;;;5078207;28;20109;-79
2022/05/02 00:47:51;;;;;;;13.05;7.43;;;;;;;;;;5058931;28;20068;-79
2022/05/02 00:50:29;;;;;;;14.07;8.23;;;;;;;;;;5068864;28;20043;-79
2022/05/02 00:52:55;;;;;;;12.85;8.25;;;;;;;;;;5077906;28;20044;-79
2022/05/02 00:55:21;;;;;;;11.85;8.05;;;;;;;;;;5072611;28;20044;-79
2022/05/02 00:57:47;;;;;;;13.85;8.20;;;;;;;;;;5076970;28;20115;-79
2022/05/02 01:00:14;;;;;;;12.27;8.30;;;;;;;;;;5077220;28;20040;-79
2022/05/02 01:02:40;;;;;;;13.52;8.85;;;;;;;;;;5074779;28;20032;-79
2022/05/02 01:05:06;;;;;;;12.10;7.65;;;;;;;;;;5079955;28;20486;-79
2022/05/02 01:07:32;;;;;;;13.60;8.35;;;;;;;;;;5080146;28;20050;-79
2022/05/02 01:09:58;;;;;;;11.45;8.00;;;;;;;;;;5078536;28;20412;-79
2022/05/02 01:12:25;;;;;;;12.63;8.10;;;;;;;;;;5057207;28;20046;-79
2022/05/02 01:14:55;;;;;;;12.55;7.35;;;;;;;;;;5073138;28;20036;-79
2022/05/02 01:17:22;;;;;;;10.32;6.82;;;;;;;;;;5074320;28;20040;-79
2022/05/02 01:19:49;;;;;;;12.10;7.95;;;;;;;;;;5083482;28;20032;-79
2022/05/02 01:22:16;;;;;;;11.65;7.43;;;;;;;;;;5069781;28;20040;-79
2022/05/02 01:24:46;;;;;;;13.90;8.50;;;;;;;;;;5062714;28;20041;-79
2022/05/02 01:27:12;;;;;;;13.48;8.90;;;;;;;;;;5080116;28;20045;-79
2022/05/02 01:29:41;;;;;;;13.95;8.75;;;;;;;;;;5070495;28;20076;-79
2022/05/02 01:32:08;;;;;;;11.20;7.25;;;;;;;;;;5083809;28;20075;-79
2022/05/02 01:34:34;;;;;;;12.18;7.90;;;;;;;;;;5077877;28;20048;-78
2022/05/02 01:37:01;;;;;;;13.52;8.02;;;;;;;;;;5081050;28;20153;-79
2022/05/02 01:39:28;;;;;;;12.35;8.43;;;;;;;;;;5060777;28;20041;-79
2022/05/02 01:41:54;;;;;;;14.75;8.70;;;;;;;;;;5072524;28;20396;-79
2022/05/02 01:44:20;;;;;;;14.45;9.02;;;;;;;;;;5079973;28;20036;-79
2022/05/02 01:46:46;;;;;;;13.02;8.23;;;;;;;;;;5058054;28;20044;-79
2022/05/02 01:49:12;;;;;;;11.30;8.02;;;;;;;;;;5083348;28;20079;-79
2022/05/02 01:51:39;;;;;;;13.02;8.70;;;;;;;;;;5077518;28;20086;-79
2022/05/02 01:54:05;;;;;;;14.00;7.35;;;;;;;;;;5080425;28;20404;-79
2022/05/02 01:56:31;;;;;;;16.05;9.10;;;;;;;;;;5081708;28;20038;-79
2022/05/02 01:58:57;;;;;;;12.48;8.50;;;;;;;;;;5074199;28;20392;-79
2022/05/02 02:01:24;;;;;;;12.25;8.00;;;;;;;;;;5067361;28;20037;-79
2022/05/02 02:03:50;;;;;;;14.88;9.20;;;;;;;;;;5073386;28;20086;-79
2022/05/02 02:06:16;;;;;;;16.25;9.13;;;;;;;;;;5079672;28;20040;-79
2022/05/02 02:08:42;;;;;;;16.05;9.32;;;;;;;;;;5083935;28;20051;-79
2022/05/02 02:11:09;;;;;;;13.73;8.02;;;;;;;;;;5082167;28;20046;-79
2022/05/02 02:13:36;;;;;;;12.35;8.98;;;;;;;;;;5069898;28;20041;-79
2022/05/02 02:16:06;;;;;;;13.77;8.27;;;;;;;;;;5055217;28;20033;-78
2022/05/02 02:18:32;;;;;;;14.25;8.38;;;;;;;;;;5076770;28;20123;-79
2022/05/02 02:20:58;;;;;;;13.30;8.25;;;;;;;;;;5078257;28;20040;-79
2022/05/02 02:23:25;;;;;;;13.65;8.10;;;;;;;;;;5077303;28;20047;-79
2022/05/02 02:25:51;;;;;;;15.35;8.90;;;;;;;;;;5057622;28;20044;-79
2022/05/02 02:28:17;;;;;;;12.93;8.98;;;;;;;;;;5063308;28;20817;-79
2022/05/02 02:30:44;;;;;;;15.13;9.40;;;;;;;;;;5064707;28;20032;-79
2022/05/02 02:33:10;;;;;;;15.40;9.02;;;;;;;;;;5071549;28;20400;-79
2022/05/02 02:35:37;;;;;;;15.40;9.15;;;;;;;;;;5053558;28;20115;-79
2022/05/02 02:38:03;;;;;;;14.98;9.90;;;;;;;;;;5079729;28;20079;-79
2022/05/02 02:40:29;;;;;;;15.63;9.13;;;;;;;;;;5077975;28;20500;-79
2022/05/02 02:42:56;;;;;;;12.77;8.50;;;;;;;;;;5082820;28;20137;-79
2022/05/02 02:45:22;;;;;;;14.55;9.30;;;;;;;;;;5060093;28;20504;-79
2022/05/02 02:47:48;;;;;;;14.07;8.75;;;;;;;;;;5075236;28;20048;-79
2022/05/02 02:50:15;;;;;;;11.82;8.43;;;;;;;;;;5073324;28;20037;-79
2022/05/02 02:52:41;;;;;;;18.08;9.95;;;;;;;;;;5046726;28;20514;-79
2022/05/02 02:55:07;;;;;;;14.68;8.07;;;;;;;;;;5062092;28;20048;-79
2022/05/02 02:57:34;;;;;;;14.50;9.32;;;;;;;;;;5070665;28;20036;-79
2022/05/02 03:00:00;;;;;;;15.10;9.73;;;;;;;;;;5076286;28;20048;-79
2022/05/02 03:02:26;;;;;;;16.05;9.18;;;;;;;;;;5061114;28;20067;-79
2022/05/02 03:07:37;;;;;;;14.55;9.27;;;;;;;;;;5071860;28;20040;-79
2022/05/02 03:10:04;;;;;;;17.60;10.43;;;;;;;;;;5072116;28;20036;-79
2022/05/02 03:12:30;;;;;;;14.95;9.15;;;;;;;;;;5059389;28;20055;-79
2022/05/02 03:14:56;;;;;;;15.75;9.55;;;;;;;;;;5081935;28;20044;-79
2022/05/02 03:17:22;;;;;;;14.38;9.07;;;;;;;;;;5074394;28;20499;-79
2022/05/02 03:19:48;;;;;;;15.02;9.60;;;;;;;;;;5079894;28;20039;-79
2022/05/02 03:22:14;;;;;;;16.98;9.85;;;;;;;;;;5078900;28;20039;-79
2022/05/02 03:24:40;;;;;;;14.60;9.82;;;;;;;;;;5077095;28;20036;-79
2022/05/02 03:27:07;;;;;;;15.27;9.90;;;;;;;;;;5058953;28;20122;-79
2022/05/02 03:29:33;;;;;;;16.42;9.70;;;;;;;;;;5079229;28;20070;-79
2022/05/02 03:31:59;;;;;;;18.60;10.80;;;;;;;;;;5068664;28;20067;-79
2022/05/02 03:34:25;;;;;;;16.52;10.88;;;;;;;;;;5062729;28;20426;-78
2022/05/02 03:36:51;;;;;;;17.25;10.30;;;;;;;;;;5061921;28;20048;-79
2022/05/02 03:39:17;;;;;;;16.58;10.40;;;;;;;;;;5052510;28;20071;-79
2022/05/02 03:41:43;;;;;;;21.23;10.52;;;;;;;;;;5068393;28;20098;-79
2022/05/02 03:44:09;;;;;;;16.88;9.73;;;;;;;;;;5068906;28;20388;-79
2022/05/02 03:46:35;;;;;;;16.30;10.07;;;;;;;;;;5068983;28;20040;-79
2022/05/02 03:49:01;;;;;;;15.10;9.43;;;;;;;;;;5051766;28;20052;-78
2022/05/02 03:51:28;;;;;;;17.02;10.65;;;;;;;;;;5068873;28;20055;-79
2022/05/02 03:53:54;;;;;;;13.88;9.02;;;;;;;;;;5051340;28;20052;-79
2022/05/02 03:56:20;;;;;;;17.58;11.30;;;;;;;;;;5068773;28;20178;-79
2022/05/02 03:58:46;;;;;;;17.27;10.57;;;;;;;;;;5051944;28;20515;-79
2022/05/02 04:01:12;;;;;;;18.60;10.68;;;;;;;;;;5064636;28;20040;-79
2022/05/02 04:03:38;;;;;;;15.45;9.27;;;;;;;;;;5067422;28;20307;-79
2022/05/02 04:06:05;;;;;;;17.15;10.02;;;;;;;;;;5068195;28;20044;-79
2022/05/02 04:08:31;;;;;;;17.15;10.35;;;;;;;;;;5068794;28;20037;-79
2022/05/02 04:10:57;;;;;;;14.95;9.80;;;;;;;;;;5068067;28;20056;-80
2022/05/02 04:13:23;;;;;;;18.10;11.18;;;;;;;;;;5067728;28;20110;-80
2022/05/02 04:15:49;;;;;;;17.45;10.60;;;;;;;;;;5075529;28;20089;-79
2022/05/02 04:18:15;;;;;;;20.38;11.98;;;;;;;;;;5068923;28;20032;-80
2022/05/02 04:20:42;;;;;;;19.98;11.68;;;;;;;;;;5049249;28;20126;-80
2022/05/02 04:23:08;;;;;;;17.70;11.73;;;;;;;;;;5068549;28;20158;-80
2022/05/02 04:25:34;;;;;;;20.90;11.98;;;;;;;;;;5068759;28;20518;-80
2022/05/02 04:28:00;;;;;;;21.73;12.88;;;;;;;;;;5051974;28;20492;-80
2022/05/02 04:30:26;;;;;;;17.48;11.07;;;;;;;;;;5069095;28;20051;-80
2022/05/02 04:32:52;;;;;;;17.50;10.23;;;;;;;;;;5070988;28;20089;-84
2022/05/02 04:35:18;;;;;;;16.13;10.18;;;;;;;;;;5053903;28;20040;-83
2022/05/02 04:37:45;;;;;;;16.05;9.93;;;;;;;;;;5070454;28;20053;-83
2022/05/02 04:40:11;;;;;;;14.85;9.18;;;;;;;;;;5070877;28;20059;-83
2022/05/02 04:42:38;;;;;;;14.70;9.10;;;;;;;;;;5073894;28;20037;-84
2022/05/02 04:45:04;;;;;;;15.90;8.95;;;;;;;;;;5074954;28;20463;-83
2022/05/02 04:47:30;;;;;;;15.75;9.77;;;;;;;;;;5058601;28;20076;-83
2022/05/02 04:49:56;;;;;;;13.52;9.68;;;;;;;;;;5074922;28;20062;-83
2022/05/02 04:52:23;;;;;;;13.02;9.30;;;;;;;;;;5074819;28;20043;-83
2022/05/02 04:54:49;;;;;;;12.57;7.47;;;;;;;;;;5057903;28;20052;-83
2022/05/02 04:57:15;;;;;;;11.77;7.90;;;;;;;;;;5075099;28;20071;-83
2022/05/02 04:59:41;;;;;;;13.95;8.45;;;;;;;;;;5073850;28;20058;-82
2022/05/02 05:02:09;;;;;;;10.90;8.02;;;;;;;;;;5074216;28;20255;-83
2022/05/02 05:04:35;;;;;;;12.68;8.38;;;;;;;;;;5073046;28;20429;-83
2022/05/02 05:07:01;;;;;;;11.48;8.90;;;;;;;;;;5072981;28;20101;-83
2022/05/02 05:09:27;;;;;;;13.32;9.02;;;;;;;;;;5072876;28;20040;-83
2022/05/02 05:12:06;;;;;;;14.02;10.05;;;;;;;;;;5072512;28;20048;-83
2022/05/02 05:17:43;;;;;;;11.95;8.90;;;;;;;;;;5072715;28;20127;-84
2022/05/02 05:20:33;;;;;;;13.88;8.68;;;;;;;;;;5057175;28;20060;-84
2022/05/02 05:23:18;;;;;;;12.23;8.88;;;;;;;;;;5071634;28;20040;-84
2022/05/02 05:25:53;;;;;;;11.02;8.98;;;;;;;;;;5071918;28;20059;-85
2022/05/02 05:28:35;;;;;;;12.23;9.35;;;;;;;;;;5072244;28;20513;-85
2022/05/02 05:31:11;;;;;;;10.27;8.00;;;;;;;;;;5071742;28;20393;-85
2022/05/02 05:33:46;;;;;;;9.90;8.25;;;;;;;;;;5071387;28;20124;-85
2022/05/02 05:36:18;;;;;;;10.65;8.30;;;;;;;;;;5055079;28;20136;-86
2022/05/02 05:38:54;;;;;;;11.68;8.35;;;;;;;;;;5054557;28;20092;-86
2022/05/02 05:41:46;;;;;;;14.48;9.10;;;;;;;;;;5055395;28;20391;-85
2022/05/02 05:44:12;;;;;;;9.27;7.75;;;;;;;;;;5055014;28;20138;-85
2022/05/02 05:46:44;;;;;;;12.02;8.55;;;;;;;;;;5054554;28;20496;-86
2022/05/02 05:49:10;;;;;;;11.35;8.40;;;;;;;;;;5071213;28;20695;-87
2022/05/02 05:51:39;;;;;;;12.43;8.20;;;;;;;;;;5053999;28;20072;-86
2022/05/02 05:54:24;;;;;;;10.80;8.68;;;;;;;;;;5054717;28;20083;-86
2022/05/02 05:57:05;;;;;;;12.60;8.25;;;;;;;;;;5071365;28;20099;-85
2022/05/02 05:59:51;;;;;;;10.07;8.02;;;;;;;;;;5054410;28;20029;-86
2022/05/02 06:02:17;;;;;;;;;;;;;;;;;;5054803;28;20045;-84
2022/05/02 06:04:43;;;;;;;13.57;8.93;;;;;;;;;;5054309;28;19924;-83
2022/05/02 06:07:12;;;;;;;11.82;8.23;;;;;;;;;;5054577;28;20059;-82
2022/05/02 06:09:39;;;;;;;9.63;7.63;;;;;;;;;;5070363;28;20045;-83
2022/05/02 06:12:06;;;;;;;10.73;8.43;;;;;;;;;;5053620;28;20256;-82
2022/05/02 06:18:27;;;;;;;9.32;7.80;;;;;;;;;;5054190;28;20044;-83
2022/05/02 06:20:08;;;;;;;;;;;;;;;;;;5072658;28;20037;-82
2022/05/02 06:22:35;;;;;;;10.05;7.82;;;;;;;;;;5087869;28;19916;-82
2022/05/02 06:25:03;;;;;;;10.18;8.30;;;;;;;;;;5070839;28;20051;-81
2022/05/02 06:27:29;;;;;;;10.20;7.70;;;;;;;;;;5054389;28;20396;-81
2022/05/02 06:29:55;;;;;;;11.93;8.27;;;;;;;;;;5071690;28;20044;-83
2022/05/02 06:32:22;;;;;;;10.30;8.07;;;;;;;;;;5070685;28;20056;-83
2022/05/02 06:34:48;;;;;;;13.07;8.85;;;;;;;;;;5053620;28;20055;-82
2022/05/02 06:37:21;;;;;;;9.95;7.50;;;;;;;;;;5053677;28;20059;-83
2022/05/02 06:40:03;;;;;;;9.60;7.43;;;;;;;;;;5053233;28;20044;-82
2022/05/02 06:42:30;;;;;;;9.27;7.25;;;;;;;;;;5070386;28;20123;-82
2022/05/02 06:45:06;;;;;;;12.02;7.20;;;;;;;;;;5053676;28;20041;-82
2022/05/02 06:47:45;;;;;;;9.40;7.22;;;;;;;;;;5070142;28;20548;-82
2022/05/02 06:50:12;;;;;;;9.07;7.35;;;;;;;;;;5070474;28;20094;-82
2022/05/02 06:52:49;;;;;;;10.32;7.80;;;;;;;;;;5053435;28;20040;-82
2022/05/02 06:55:15;;;;;;;10.80;7.68;;;;;;;;;;5053500;28;20049;-82
2022/05/02 06:57:47;;;;;;;8.82;7.15;;;;;;;;;;5070162;28;20045;-82
2022/05/02 07:00:17;;;;;;;11.27;7.63;;;;;;;;;;5070357;28;20365;-82
2022/05/02 07:02:49;;;;;;;11.40;8.05;;;;;;;;;;5070350;28;20549;-82
2022/05/02 07:05:31;;;;;;;10.70;7.30;;;;;;;;;;5069544;28;20110;-81
2022/05/02 07:08:07;;;;;;;9.88;7.78;;;;;;;;;;5053427;28;20098;-82
2022/05/02 07:10:34;;;;;;;8.43;7.53;;;;;;;;;;5053338;28;20052;-82
2022/05/02 07:13:13;;;;;;;13.60;7.90;;;;;;;;;;5053388;28;20075;-82
2022/05/02 07:15:42;;;;;;;8.15;7.07;;;;;;;;;;5069948;28;20128;-82
2022/05/02 07:18:14;;;;;;;10.48;7.20;;;;;;;;;;5070223;28;20043;-82
2022/05/02 07:20:59;;;;;;;10.73;7.43;;;;;;;;;;5069736;28;20033;-82
2022/05/02 07:23:25;;;;;;;9.77;6.80;;;;;;;;;;5053480;28;20040;-81
2022/05/02 07:25:57;;;;;;;9.38;7.30;;;;;;;;;;5070169;28;20055;-81
2022/05/02 07:28:36;;;;;;;8.48;6.72;;;;;;;;;;5070163;28;20070;-82
2022/05/02 07:31:02;;;;;;;8.35;6.93;;;;;;;;;;5069684;28;20075;-82
2022/05/02 07:33:35;;;;;;;7.47;6.45;;;;;;;;;;5070521;28;20428;-81
2022/05/02 07:36:02;;;;;;;10.00;7.57;;;;;;;;;;5069867;28;20404;-82
2022/05/02 07:38:33;;;;;;;8.63;6.38;;;;;;;;;;5069380;28;20052;-83
2022/05/02 07:43:46;;;;;;;9.30;6.63;;;;;;;;;;5069144;28;20049;-82
2022/05/02 07:46:12;;;;;;;9.43;7.00;;;;;;;;;;5052945;28;20033;-82
2022/05/02 07:48:43;;;;;;;7.43;6.63;;;;;;;;;;5070370;28;20047;-82
2022/05/02 07:51:09;;;;;;;8.27;6.30;;;;;;;;;;5069813;28;20044;-81
2022/05/02 07:53:37;;;;;;;8.95;6.85;;;;;;;;;;5069892;28;20502;-82
2022/05/02 07:56:04;;;;;;;8.93;6.25;;;;;;;;;;5069112;28;20049;-82
2022/05/02 07:58:31;;;;;;;13.55;6.97;;;;;;;;;;5052703;28;20075;-82
2022/05/02 08:00:57;;;;;;;7.95;7.15;;;;;;;;;;5069136;28;20480;-82
2022/05/02 08:03:25;;;;;;;9.85;6.43;;;;;;;;;;5052825;28;20044;-82
2022/05/02 08:05:55;;;;;;;9.50;7.22;;;;;;;;;;5069131;28;20547;-82
2022/05/02 08:08:30;;;;;;;8.52;7.10;;;;;;;;;;5069764;28;20385;-81
2022/05/02 08:11:16;;;;;;;9.25;6.47;;;;;;;;;;5052173;28;20047;-82
2022/05/02 08:13:48;;;;;;;11.27;7.15;;;;;;;;;;5069048;28;20123;-82
2022/05/02 08:16:24;;;;;;;10.27;7.15;;;;;;;;;;5069243;28;20094;-82
2022/05/02 08:19:04;;;;;;;8.57;7.00;;;;;;;;;;5068823;28;20040;-82
2022/05/02 08:21:33;;;;;;;8.40;7.55;;;;;;;;;;5052482;28;20041;-82
2022/05/02 08:27:19;;;;;;;9.00;7.20;;;;;;;;;;5068698;28;20560;-83
2022/05/02 08:30:04;;;;;;;8.30;6.38;;;;;;;;;;5068462;28;20044;-83
2022/05/02 08:32:30;;;;;;;;;;;;;;;;;;5069379;28;20504;-82
2022/05/02 08:34:59;;;;;;;8.30;7.18;;;;;;;;;;5068838;28;19959;-82
2022/05/02 08:37:28;;;;;;;7.00;5.70;;;;;;;;;;5052461;28;20087;-81
2022/05/02 08:40:10;;;;;;;8.98;6.82;;;;;;;;;;5068751;28;20128;-83
2022/05/02 08:42:54;;;;;;;7.05;6.15;;;;;;;;;;5069540;28;20040;-82
2022/05/02 08:45:20;;;;;;;6.72;5.80;;;;;;;;;;5069671;28;20049;-82
2022/05/02 08:48:04;;;;;;;7.50;6.00;;;;;;;;;;5069594;28;20055;-82
2022/05/02 08:50:49;;;;;;;7.47;6.00;;;;;;;;;;5052365;28;20532;-85
2022/05/02 08:53:21;;;;;;;8.13;6.60;;;;;;;;;;5068975;28;20568;-82
2022/05/02 08:55:59;;;;;;;9.32;5.80;;;;;;;;;;5068482;28;20182;-82
2022/05/02 08:58:25;;;;;;;6.82;5.78;;;;;;;;;;5069496;28;20538;-83
2022/05/02 09:01:04;;;;;;;9.75;6.47;;;;;;;;;;5052317;28;20037;-82
2022/05/02 09:03:30;;;;;;;9.52;6.28;;;;;;;;;;5069664;28;20044;-82
2022/05/02 09:06:19;;;;;;;7.00;5.65;;;;;;;;;;5068307;28;20045;-83
2022/05/02 09:08:48;;;;;;;8.32;5.85;;;;;;;;;;5068839;28;20489;-84
2022/05/02 09:11:33;;;;;;;8.50;5.80;;;;;;;;;;5068011;28;20128;-85
2022/05/02 09:14:18;;;;;;;8.57;5.80;;;;;;;;;;5067920;28;20080;-84
2022/05/02 09:17:03;;;;;;;8.75;6.43;;;;;;;;;;5070128;28;20498;-82
2022/05/02 09:19:29;;;;;;;8.00;5.22;;;;;;;;;;5068979;28;20076;-83
2022/05/02 09:21:55;;;;;;;9.95;5.88;;;;;;;;;;5067856;28;20041;-83
2022/05/02 09:24:37;;;;;;;8.60;5.72;;;;;;;;;;5052187;28;20500;-83
2022/05/02 09:27:14;;;;;;;8.23;6.25;;;;;;;;;;5052906;28;20090;-82
2022/05/02 09:29:59;;;;;;;5.90;5.30;;;;;;;;;;5073802;28;20507;-83
2022/05/02 09:32:42;;;;;;;7.93;6.43;;;;;;;;;;5072901;28;20044;-82
2022/05/02 09:35:12;;;;;;;9.73;5.85;;;;;;;;;;5072756;28;20044;-83
2022/05/02 09:37:39;;;;;;;6.57;5.38;;;;;;;;;;5072069;28;20493;-85
2022/05/02 09:40:12;;;;;;;6.90;5.15;;;;;;;;;;5071363;28;20392;-83
2022/05/02 09:42:39;;;;;;;7.57;4.75;;;;;;;;;;5074015;28;20033;-83
2022/05/02 09:51:11;;;;;;;5.63;4.43;;;;;;;;;;5070845;28;20056;-83
2022/05/02 09:53:56;;;;;;;6.18;4.40;;;;;;;;;;5072190;28;20044;-84
2022/05/02 09:56:38;;;;;;;7.18;4.50;;;;;;;;;;5072399;28;20123;-82
2022/05/02 09:59:04;;;;;;;6.38;4.95;;;;;;;;;;5071816;28;20069;-82
2022/05/02 10:01:32;;;;;;;6.28;4.75;;;;;;;;;;5072830;28;20366;-82
2022/05/02 10:04:04;;;;;;;6.38;4.50;;;;;;;;;;5055968;28;20099;-82
2022/05/02 10:06:50;;;;;;;9.45;4.40;;;;;;;;;;5073080;28;20040;-82
2022/05/02 10:09:23;;;;;;;5.72;4.07;;;;;;;;;;5073172;28;20052;-82
2022/05/02 10:11:49;;;;;;;6.30;4.65;;;;;;;;;;5073076;28;20465;-82
2022/05/02 10:14:28;;;;;;;6.78;4.47;;;;;;;;;;5074157;28;20369;-82
2022/05/02 10:16:54;;;;;;;7.43;4.80;;;;;;;;;;5072734;28;20044;-82
2022/05/02 10:19:36;;;;;;;6.18;5.00;;;;;;;;;;5073654;28;20044;-82
2022/05/02 10:22:08;;;;;;;5.75;4.88;;;;;;;;;;5072865;28;20391;-82
2022/05/02 10:24:34;;;;;;;8.30;5.03;;;;;;;;;;5072674;28;20052;-82
2022/05/02 10:27:03;;;;;;;7.93;4.90;;;;;;;;;;5072082;28;20104;-83
2022/05/02 10:29:32;;;;;;;7.30;4.97;;;;;;;;;;5055856;28;20045;-82
2022/05/02 10:32:02;;;;;;;5.93;5.00;;;;;;;;;;5072329;28;20048;-85
2022/05/02 10:34:31;;;;;;;6.18;4.85;;;;;;;;;;5073106;28;20041;-83
2022/05/02 10:37:01;;;;;;;7.00;5.15;;;;;;;;;;5071595;28;20133;-83
2022/05/02 10:39:36;;;;;;;7.45;5.72;;;;;;;;;;5073543;28;20055;-83
2022/05/02 10:42:06;;;;;;;8.88;5.30;;;;;;;;;;5072652;28;20391;-82
2022/05/02 10:44:56;;;;;;;9.38;5.60;;;;;;;;;;5074392;28;20404;-84
2022/05/02 10:47:26;;;;;;;8.45;5.10;;;;;;;;;;5063273;28;20056;-83
2022/05/02 10:49:58;;;;;;;5.18;3.63;;;;;;;;;;5055175;28;20374;-84
2022/05/02 10:52:47;;;;;;;8.15;4.38;;;;;;;;;;5072364;28;20044;-83
2022/05/02 10:55:27;;;;;;;6.65;4.28;;;;;;;;;;5072431;28;20071;-83
2022/05/02 10:57:54;;;;;;;8.23;4.97;;;;;;;;;;5072270;28;20509;-83
2022/05/02 11:00:22;;;;;;;5.65;4.43;;;;;;;;;;5072000;28;20048;-86
2022/05/02 11:02:53;;;;;;;6.10;4.13;;;;;;;;;;5070434;28;20045;-84
2022/05/02 11:05:26;;;;;;;5.57;4.10;;;;;;;;;;5054207;28;20036;-84
2022/05/02 11:08:02;;;;;;;5.45;4.63;;;;;;;;;;5070789;28;20051;-85
2022/05/02 11:10:28;;;;;;;;;;;;;;;;;;5071997;28;20067;-84
2022/05/02 11:13:04;;;;;;;6.55;4.25;;;;;;;;;;5089306;28;20303;-83
2022/05/02 11:15:39;;;;;;;4.80;4.03;;;;;;;;;;5072428;28;20075;-83
2022/05/02 11:20:41;;;;;;;5.97;3.90;;;;;;;;;;5072545;28;20038;-83
2022/05/02 11:21:13;;;;;;;6.70;4.45;;;;;;;;;;5072538;28;20044;-83
2022/05/02 11:23:45;;;;;;;6.38;4.22;;;;;;;;;;5071906;28;20121;-83
2022/05/02 11:26:17;;;;;;;6.45;4.43;;;;;;;;;;5071498;28;20151;-84
2022/05/02 11:28:48;;;;;;;6.18;4.40;;;;;;;;;;5072055;28;20467;-83
2022/05/02 11:31:18;;;;;;;4.88;3.50;;;;;;;;;;5070743;28;20400;-84
2022/05/02 11:33:49;;;;;;;6.65;4.07;;;;;;;;;;5072104;28;20439;-83
2022/05/02 11:36:19;;;;;;;5.60;4.07;;;;;;;;;;5071217;28;20131;-84
2022/05/02 11:38:50;;;;;;;7.40;4.43;;;;;;;;;;5070195;28;20082;-83
2022/05/02 11:41:18;;;;;;;5.55;3.80;;;;;;;;;;5053005;28;20071;-85
2022/05/02 11:43:45;;;;;;;7.18;4.30;;;;;;;;;;5053231;28;20508;-84
2022/05/02 11:46:25;;;;;;;7.07;5.45;;;;;;;;;;5054010;28;20051;-83
2022/05/02 11:49:10;;;;;;;6.53;4.32;;;;;;;;;;5071389;28;20048;-84
2022/05/02 11:51:47;;;;;;;6.40;4.43;;;;;;;;;;5071057;28;20142;-85
2022/05/02 11:54:33;;;;;;;7.93;4.20;;;;;;;;;;5070164;28;20433;-84
2022/05/02 11:56:59;;;;;;;;;;;;;;;;;;5070533;28;20043;-85
2022/05/02 11:59:28;;;;;;;5.25;4.18;;;;;;;;;;5086628;28;19943;-87
2022/05/02 12:02:03;;;;;;;6.43;4.55;;;;;;;;;;5070473;28;20040;-85
2022/05/02 12:04:32;;;;;;;5.57;4.43;;;;;;;;;;5053936;28;20048;-84
2022/05/02 12:07:05;;;;;;;6.88;4.35;;;;;;;;;;5069832;28;20119;-86
2022/05/02 12:09:34;;;;;;;6.18;4.40;;;;;;;;;;5069648;28;20411;-83
2022/05/02 12:12:04;;;;;;;6.90;4.47;;;;;;;;;;5070519;28;20049;-88
2022/05/02 12:14:31;;;;;;;8.23;3.80;;;;;;;;;;5069142;28;20087;-84
2022/05/02 12:17:06;;;;;;;6.03;4.10;;;;;;;;;;5070826;28;20120;-83
2022/05/02 12:19:33;;;;;;;5.55;4.60;;;;;;;;;;5052776;28;20047;-85
2022/05/02 12:22:14;;;;;;;6.10;4.38;;;;;;;;;;5052764;28;20052;-82
2022/05/02 12:24:41;;;;;;;7.18;4.38;;;;;;;;;;5071948;28;20040;-83
2022/05/02 12:27:09;;;;;;;6.15;4.38;;;;;;;;;;5070622;28;20458;-83
2022/05/02 12:29:36;;;;;;;6.00;3.95;;;;;;;;;;5054266;28;20040;-82
2022/05/02 12:32:03;;;;;;;6.32;4.25;;;;;;;;;;5052390;28;20040;-82
2022/05/02 12:34:46;;;;;;;5.35;3.60;;;;;;;;;;5069707;28;20123;-82
2022/05/02 12:37:20;;;;;;;6.90;4.60;;;;;;;;;;5070038;28;20098;-83
2022/05/02 12:39:48;;;;;;;5.57;4.00;;;;;;;;;;5053243;28;20057;-83
2022/05/02 12:42:16;;;;;;;9.50;4.10;;;;;;;;;;5053359;28;20044;-82
2022/05/02 12:44:46;;;;;;;5.70;4.57;;;;;;;;;;5070832;28;20480;-84
2022/05/02 12:47:36;;;;;;;4.53;3.28;;;;;;;;;;5052686;28;20045;-83
2022/05/02 12:50:07;;;;;;;6.60;3.85;;;;;;;;;;5051853;28;20040;-84
2022/05/02 12:52:34;;;;;;;9.15;4.13;;;;;;;;;;5053414;28;20043;-82
2022/05/02 12:55:00;;;;;;;7.00;4.10;;;;;;;;;;5069031;28;20045;-83
2022/05/02 13:00:31;;;;;;;5.38;3.75;;;;;;;;;;5069256;28;20078;-85
2022/05/02 13:03:15;;;;;;;5.80;4.05;;;;;;;;;;5071063;28;20032;-84
2022/05/02 13:05:57;;;;;;;6.28;3.90;;;;;;;;;;5073066;28;20048;-85
2022/05/02 13:08:31;;;;;;;6.80;4.70;;;;;;;;;;5074267;28;20391;-83
2022/05/02 13:11:03;;;;;;;6.43;4.70;;;;;;;;;;5073253;28;20041;-83
2022/05/02 13:13:50;;;;;;;8.18;4.68;;;;;;;;;;5056769;28;20190;-83
2022/05/02 13:16:26;;;;;;;7.35;4.95;;;;;;;;;;5072589;28;20392;-84
2022/05/02 13:18:53;;;;;;;6.80;4.20;;;;;;;;;;5072275;28;20044;-83
2022/05/02 13:21:20;;;;;;;5.55;4.53;;;;;;;;;;5074006;28;20519;-84
2022/05/02 13:23:50;;;;;;;7.30;4.28;;;;;;;;;;5056357;28;20093;-84
2022/05/02 13:26:23;;;;;;;6.85;4.65;;;;;;;;;;5072555;28;20085;-84
2022/05/02 13:28:58;;;;;;;5.63;4.47;;;;;;;;;;5073365;28;20040;-83
2022/05/02 13:31:24;;;;;;;;;;;;;;;;;;5057646;28;20041;-82
2022/05/02 13:33:53;;;;;;;6.65;4.70;;;;;;;;;;5055631;28;19929;-84
2022/05/02 13:36:21;;;;;;;9.68;5.30;;;;;;;;;;5073374;28;20063;-84
2022/05/02 13:38:50;;;;;;;7.03;4.70;;;;;;;;;;5055759;28;20050;-83
2022/05/02 13:41:17;;;;;;;7.50;5.28;;;;;;;;;;5073050;28;20123;-83
2022/05/02 13:43:49;;;;;;;6.82;4.75;;;;;;;;;;5072702;28;20126;-83
2022/05/02 13:46:22;;;;;;;5.97;4.50;;;;;;;;;;5072372;28;20040;-84
2022/05/02 13:49:03;;;;;;;7.53;5.40;;;;;;;;;;5073443;28;20484;-85
2022/05/02 13:51:38;;;;;;;6.40;5.15;;;;;;;;;;5073530;28;20460;-83
2022/05/02 13:54:10;;;;;;;9.00;5.65;;;;;;;;;;5056447;28;20051;-83
2022/05/02 13:56:56;;;;;;;10.13;4.90;;;;;;;;;;5073411;28;20431;-83
2022/05/02 13:59:53;;;;;;;6.95;4.88;;;;;;;;;;5072778;28;20156;-83
2022/05/02 14:02:49;;;;;;;7.03;4.90;;;;;;;;;;5045641;28;20045;-83
2022/05/02 14:05:32;;;;;;;7.22;4.82;;;;;;;;;;5030857;28;20059;-83
2022/05/02 14:08:00;;;;;;;6.22;4.95;;;;;;;;;;5055980;28;20068;-83
2022/05/02 14:10:29;;;;;;;8.98;4.97;;;;;;;;;;5055885;28;20043;-84
2022/05/02 14:12:55;;;;;;;9.50;4.93;;;;;;;;;;5071921;28;20469;-81
2022/05/02 14:15:23;;;;;;;6.07;3.97;;;;;;;;;;5053160;28;20109;-85
2022/05/02 14:17:53;;;;;;;9.48;4.70;;;;;;;;;;5074997;28;20036;-83
2022/05/02 14:20:23;;;;;;;7.25;4.43;;;;;;;;;;5079091;28;20145;-84
2022/05/02 14:23:09;;;;;;;5.75;4.50;;;;;;;;;;5062511;28;20514;-84
2022/05/02 14:25:36;;;;;;;5.43;4.00;;;;;;;;;;5107745;28;20484;-86
2022/05/02 14:28:11;;;;;;;7.43;4.57;;;;;;;;;;5090323;28;20083;-83
2022/05/02 14:30:41;;;;;;;10.35;4.72;;;;;;;;;;5068088;28;20036;-83
2022/05/02 14:33:30;;;;;;;7.95;4.43;;;;;;;;;;5068368;28;20427;-84
2022/05/02 14:35:56;;;;;;;6.47;4.38;;;;;;;;;;5070027;28;20053;-83
2022/05/02 14:38:24;;;;;;;6.93;4.63;;;;;;;;;;5053505;28;20054;-82
2022/05/02 14:40:50;;;;;;;7.22;4.38;;;;;;;;;;5069700;28;20037;-82
2022/05/02 14:43:17;;;;;;;8.02;3.85;;;;;;;;;;5070128;28;20048;-82
2022/05/02 14:45:44;;;;;;;7.00;4.10;;;;;;;;;;5054481;28;20049;-82
2022/05/02 14:48:12;;;;;;;4.78;3.70;;;;;;;;;;5037808;28;20589;-83
2022/05/02 14:50:45;;;;;;;5.40;3.72;;;;;;;;;;5054594;28;20083;-84
2022/05/02 14:53:12;;;;;;;7.60;4.20;;;;;;;;;;5070366;28;20051;-84
2022/05/02 14:55:40;;;;;;;8.15;4.30;;;;;;;;;;5069930;28;20075;-84
2022/05/02 14:58:09;;;;;;;5.57;4.20;;;;;;;;;;5070000;28;20118;-83
2022/05/02 15:00:40;;;;;;;7.38;4.07;;;;;;;;;;5070063;28;20044;-84
2022/05/02 15:03:07;;;;;;;5.90;3.60;;;;;;;;;;5068918;28;20044;-83
2022/05/02 15:05:35;;;;;;;5.75;3.80;;;;;;;;;;5070110;28;20044;-83
2022/05/02 15:08:04;;;;;;;5.00;3.55;;;;;;;;;;5069901;28;20079;-83
2022/05/02 15:10:51;;;;;;;5.72;3.28;;;;;;;;;;5053912;28;20090;-82
2022/05/02 15:13:23;;;;;;;6.10;3.65;;;;;;;;;;5049475;28;20139;-84
2022/05/02 15:15:53;;;;;;;7.38;3.50;;;;;;;;;;5052395;28;20045;-84
2022/05/02 15:21:40;;;;;;;6.07;3.40;;;;;;;;;;5047835;28;20372;-83
2022/05/02 15:24:25;;;;;;;5.78;3.47;;;;;;;;;;5079295;28;20244;-83
2022/05/02 15:26:51;;;;;;;5.38;3.58;;;;;;;;;;5086406;28;20079;-85